createdAt,value
2019-05-09T00:01:23.743Z,3.70
2019-05-09T00:03:54.452Z,4.08
2019-05-09T00:06:25.477Z,4.08
2019-05-09T00:08:56.233Z,4.10
2019-05-09T00:11:27.078Z,3.95
2019-05-09T00:13:57.490Z,3.98
2019-05-09T00:16:27.900Z,3.60
2019-05-09T00:18:58.402Z,4.08
2019-05-09T00:21:33.382Z,3.85
2019-05-09T00:24:03.841Z,4.00
2019-05-09T00:26:34.241Z,3.80
2019-05-09T00:29:06.475Z,3.37
2019-05-09T00:31:44.072Z,3.87
2019-05-09T00:34:33.802Z,3.70
2019-05-09T00:37:04.310Z,3.58
2019-05-09T00:39:34.766Z,3.70
2019-05-09T00:42:05.274Z,3.80
2019-05-09T00:44:43.151Z,3.52
2019-05-09T00:47:24.025Z,3.60
2019-05-09T00:49:54.876Z,3.77
2019-05-09T00:52:25.746Z,3.35
2019-05-09T00:54:56.456Z,4.37
2019-05-09T00:57:36.207Z,4.92
2019-05-09T01:00:18.481Z,22.77
2019-05-09T01:02:48.900Z,23.85
2019-05-09T01:05:19.818Z,25.05
2019-05-09T01:07:50.923Z,15.55
2019-05-09T01:10:23.527Z,11.63
2019-05-09T01:12:54.242Z,12.40
2019-05-09T01:15:24.892Z,11.12
2019-05-09T01:17:55.637Z,11.85
2019-05-09T01:20:26.319Z,10.45
2019-05-09T01:22:57.151Z,5.85
2019-05-09T01:25:27.989Z,7.22
2019-05-09T01:27:58.615Z,5.30
2019-05-09T01:30:30.466Z,6.33
2019-05-09T01:33:05.504Z,7.80
2019-05-09T01:35:35.990Z,6.30
2019-05-09T01:38:06.731Z,7.17
2019-05-09T01:40:37.232Z,6.00
2019-05-09T01:43:07.665Z,4.97
2019-05-09T01:45:38.339Z,4.80
2019-05-09T01:48:08.998Z,5.00
2019-05-09T01:50:39.720Z,4.60
2019-05-09T01:53:10.354Z,4.95
2019-05-09T01:55:58.917Z,4.53
2019-05-09T01:58:34.272Z,4.28
2019-05-09T02:01:06.978Z,4.95
2019-05-09T02:03:37.824Z,4.70
2019-05-09T02:06:08.220Z,4.30
2019-05-09T02:08:38.794Z,4.17
2019-05-09T02:11:09.423Z,4.28
2019-05-09T02:13:39.860Z,5.10
2019-05-09T02:16:23.516Z,4.10
2019-05-09T02:18:55.618Z,4.42
2019-05-09T02:21:26.203Z,4.10
2019-05-09T02:23:57.074Z,4.03
2019-05-09T02:26:27.583Z,3.98
2019-05-09T02:28:57.979Z,3.92
2019-05-09T02:31:28.741Z,3.87
2019-05-09T02:33:59.227Z,4.00
2019-05-09T02:36:29.706Z,4.03
2019-05-09T02:39:00.604Z,3.90
2019-05-09T02:41:30.972Z,4.40
2019-05-09T02:44:01.380Z,3.83
2019-05-09T02:46:33.564Z,3.80
2019-05-09T02:49:04.098Z,3.80
2019-05-09T02:51:34.472Z,4.22
2019-05-09T02:54:05.311Z,4.03
2019-05-09T02:56:38.474Z,3.80
2019-05-09T02:59:12.207Z,4.20
2019-05-09T03:01:52.665Z,4.03
2019-05-09T03:04:23.147Z,3.52
2019-05-09T03:07:12.813Z,3.98
2019-05-09T03:09:43.586Z,3.72
2019-05-09T03:12:26.031Z,3.95
2019-05-09T03:14:48.730Z,4.08
2019-05-09T03:17:18.694Z,3.62
2019-05-09T03:19:49.397Z,3.80
2019-05-09T03:22:21.515Z,3.87
2019-05-09T03:24:52.063Z,3.45
2019-05-09T03:27:38.946Z,3.85
2019-05-09T03:30:11.983Z,3.80
2019-05-09T03:32:42.066Z,4.20
2019-05-09T03:35:12.905Z,3.40
2019-05-09T03:37:43.316Z,3.30
2019-05-09T03:40:14.068Z,3.33
2019-05-09T03:42:44.770Z,3.60
2019-05-09T03:45:18.247Z,3.42
2019-05-09T03:47:49.956Z,3.62
2019-05-09T03:50:20.846Z,3.55
2019-05-09T03:52:51.260Z,4.10
2019-05-09T03:55:23.383Z,3.37
2019-05-09T03:58:04.326Z,3.90
2019-05-09T04:00:37.449Z,3.80
2019-05-09T04:03:08.123Z,3.90
2019-05-09T04:05:39.086Z,3.60
2019-05-09T04:08:19.303Z,3.40
2019-05-09T04:10:51.386Z,3.50
2019-05-09T04:13:23.694Z,3.55
2019-05-09T04:15:54.497Z,3.70
2019-05-09T04:18:24.984Z,3.10
2019-05-09T04:20:57.201Z,3.10
2019-05-09T04:23:27.645Z,3.42
2019-05-09T04:25:59.646Z,3.60
2019-05-09T04:28:30.098Z,3.55
2019-05-09T04:31:01.031Z,3.25
2019-05-09T04:33:31.919Z,3.33
2019-05-09T04:36:02.604Z,3.00
2019-05-09T04:38:33.284Z,3.22
2019-05-09T04:41:03.712Z,3.25
2019-05-09T04:43:37.483Z,3.22
2019-05-09T04:46:08.050Z,3.40
2019-05-09T04:48:38.785Z,3.58
2019-05-09T04:51:09.516Z,3.30
2019-05-09T04:53:40.457Z,3.25
2019-05-09T04:56:24.361Z,2.80
2019-05-09T04:58:55.025Z,3.45
2019-05-09T05:01:28.253Z,3.30
2019-05-09T05:03:59.571Z,3.00
2019-05-09T05:06:30.388Z,3.22
2019-05-09T05:09:00.806Z,2.92
2019-05-09T05:11:31.883Z,3.20
2019-05-09T05:14:02.680Z,3.22
2019-05-09T05:16:33.134Z,3.02
2019-05-09T05:19:04.294Z,3.30
2019-05-09T05:21:34.922Z,3.05
2019-05-09T05:24:09.804Z,3.08
2019-05-09T05:26:40.222Z,2.67
2019-05-09T05:29:10.913Z,3.17
2019-05-09T05:31:41.389Z,3.45
2019-05-09T05:34:19.947Z,2.90
2019-05-09T05:36:50.498Z,2.87
2019-05-09T05:39:21.463Z,2.92
2019-05-09T05:41:51.940Z,2.85
2019-05-09T05:44:22.615Z,2.75
2019-05-09T05:46:54.684Z,2.55
2019-05-09T05:49:27.827Z,2.77
2019-05-09T05:51:58.152Z,2.70
2019-05-09T05:54:28.961Z,3.00
2019-05-09T05:56:59.697Z,2.40
2019-05-09T05:59:30.083Z,2.60
2019-05-09T06:02:00.711Z,2.60
2019-05-09T06:04:31.133Z,2.70
2019-05-09T06:07:01.561Z,3.17
2019-05-09T06:09:31.966Z,2.87
2019-05-09T06:12:02.714Z,2.92
2019-05-09T06:14:33.312Z,2.62
2019-05-09T06:17:04.017Z,2.95
2019-05-09T06:19:34.757Z,2.80
2019-05-09T06:22:07.825Z,2.70
2019-05-09T06:24:38.662Z,2.52
2019-05-09T06:27:10.572Z,2.50
2019-05-09T06:29:41.602Z,2.62
2019-05-09T06:32:12.010Z,2.47
2019-05-09T06:34:42.561Z,2.70
2019-05-09T06:37:12.997Z,2.72
2019-05-09T06:39:43.473Z,2.60
2019-05-09T06:42:14.439Z,2.75
2019-05-09T06:44:52.709Z,2.50
2019-05-09T06:47:33.640Z,2.42
2019-05-09T06:50:09.070Z,2.70
2019-05-09T06:52:39.874Z,2.50
2019-05-09T06:55:10.487Z,2.40
2019-05-09T06:57:43.080Z,2.58
2019-05-09T07:00:14.506Z,2.70
2019-05-09T07:02:52.519Z,2.50
2019-05-09T07:05:29.834Z,2.65
2019-05-09T07:08:04.716Z,2.50
2019-05-09T07:10:37.180Z,2.77
2019-05-09T07:13:07.914Z,2.65
2019-05-09T07:15:38.949Z,2.60
2019-05-09T07:18:09.313Z,4.20
2019-05-09T07:20:39.718Z,4.95
2019-05-09T07:23:10.365Z,4.60
2019-05-09T07:25:42.130Z,3.08
2019-05-09T07:28:12.801Z,2.45
2019-05-09T07:30:48.158Z,2.67
2019-05-09T07:33:32.421Z,2.35
2019-05-09T07:36:02.866Z,2.72
2019-05-09T07:38:33.958Z,3.75
2019-05-09T07:41:04.365Z,2.83
2019-05-09T07:43:34.842Z,6.45
2019-05-09T07:46:08.798Z,2.72
2019-05-09T07:48:41.742Z,4.45
2019-05-09T07:51:12.215Z,3.35
2019-05-09T07:53:42.811Z,2.45
2019-05-09T07:56:13.583Z,2.30
2019-05-09T07:58:43.978Z,2.55
2019-05-09T08:01:15.077Z,2.50
2019-05-09T08:03:46.180Z,2.95
2019-05-09T08:06:18.327Z,2.40
2019-05-09T08:08:49.102Z,2.35
2019-05-09T08:11:19.515Z,2.47
2019-05-09T08:13:49.959Z,2.33
2019-05-09T08:16:20.920Z,2.35
2019-05-09T08:18:51.633Z,2.22
2019-05-09T08:21:22.412Z,4.33
2019-05-09T08:23:53.073Z,2.50
2019-05-09T08:26:23.490Z,2.70
2019-05-09T08:28:53.860Z,2.65
2019-05-09T08:31:24.316Z,2.50
2019-05-09T08:33:54.732Z,2.20
2019-05-09T08:36:25.377Z,2.30
2019-05-09T08:38:58.340Z,2.02
2019-05-09T08:41:29.266Z,2.12
2019-05-09T08:44:00.229Z,2.47
2019-05-09T08:46:31.219Z,3.90
2019-05-09T08:49:01.648Z,2.00
2019-05-09T08:51:49.361Z,2.27
2019-05-09T08:54:09.419Z,2.00
2019-05-09T08:56:39.900Z,2.12
2019-05-09T08:59:10.808Z,2.17
2019-05-09T09:02:10.020Z,2.02
2019-05-09T09:04:13.905Z,2.00
2019-05-09T09:06:44.394Z,2.20
2019-05-09T09:09:15.296Z,2.00
2019-05-09T09:11:47.786Z,2.10
2019-05-09T09:14:18.491Z,2.20
2019-05-09T09:16:49.342Z,2.00
2019-05-09T09:19:19.901Z,1.80
2019-05-09T09:21:50.308Z,2.00
2019-05-09T09:24:20.743Z,1.92
2019-05-09T09:26:51.561Z,2.08
2019-05-09T09:29:21.960Z,2.10
2019-05-09T09:31:52.390Z,2.20
2019-05-09T09:34:23.103Z,2.10
2019-05-09T09:36:53.593Z,2.10
2019-05-09T09:39:24.344Z,2.15
2019-05-09T09:41:55.225Z,2.00
2019-05-09T09:44:25.653Z,2.58
2019-05-09T09:46:58.120Z,2.35
2019-05-09T09:49:29.367Z,2.10
2019-05-09T09:52:00.340Z,2.20
2019-05-09T09:54:31.029Z,1.85
2019-05-09T09:57:02.052Z,1.98
2019-05-09T09:59:58.546Z,2.15
2019-05-09T10:02:33.739Z,1.98
2019-05-09T10:05:04.757Z,2.08
2019-05-09T10:07:35.133Z,1.92
2019-05-09T10:10:09.188Z,2.05
2019-05-09T10:12:44.310Z,1.70
2019-05-09T10:15:14.650Z,1.70
2019-05-09T10:17:47.697Z,2.08
2019-05-09T10:20:37.880Z,2.10
2019-05-09T10:23:17.013Z,2.00
2019-05-09T10:25:39.684Z,1.90
2019-05-09T10:28:10.401Z,1.80
2019-05-09T10:30:40.888Z,2.10
2019-05-09T10:33:11.334Z,2.20
2019-05-09T10:35:42.109Z,2.08
2019-05-09T10:38:12.783Z,1.75
2019-05-09T10:40:43.337Z,2.15
2019-05-09T10:43:15.118Z,1.98
2019-05-09T10:45:57.965Z,2.02
2019-05-09T10:48:28.588Z,2.27
2019-05-09T10:51:04.096Z,1.67
2019-05-09T10:53:31.311Z,2.00
2019-05-09T10:56:01.868Z,1.90
2019-05-09T10:58:32.778Z,1.95
2019-05-09T11:01:03.450Z,2.55
2019-05-09T11:03:33.858Z,2.10
2019-05-09T11:06:04.352Z,1.80
2019-05-09T11:08:34.957Z,1.70
2019-05-09T11:11:06.160Z,2.10
2019-05-09T11:13:39.079Z,1.70
2019-05-09T11:16:09.620Z,1.90
2019-05-09T11:18:40.147Z,1.92
2019-05-09T11:21:10.755Z,1.82
2019-05-09T11:23:41.523Z,1.90
2019-05-09T11:26:11.972Z,1.77
2019-05-09T11:28:42.530Z,2.52
2019-05-09T11:31:13.417Z,1.90
2019-05-09T11:33:44.455Z,1.72
2019-05-09T11:36:17.466Z,1.87
2019-05-09T11:38:49.896Z,1.87
2019-05-09T11:41:20.887Z,1.95
2019-05-09T11:43:51.267Z,1.80
2019-05-09T11:46:22.068Z,1.72
2019-05-09T11:48:52.817Z,2.00
2019-05-09T11:51:23.220Z,1.80
2019-05-09T11:53:53.652Z,1.95
2019-05-09T11:56:24.567Z,1.52
2019-05-09T11:58:57.712Z,1.75
2019-05-09T12:01:29.186Z,1.90
2019-05-09T12:03:59.609Z,1.90
2019-05-09T12:06:30.448Z,1.85
2019-05-09T12:09:00.904Z,1.90
2019-05-09T12:11:31.709Z,1.70
2019-05-09T12:14:02.120Z,1.60
2019-05-09T12:16:32.812Z,1.75
2019-05-09T12:19:03.566Z,1.70
2019-05-09T12:21:34.156Z,1.77
2019-05-09T12:24:08.815Z,1.60
2019-05-09T12:26:39.081Z,1.75
2019-05-09T12:29:09.795Z,1.55
2019-05-09T12:31:40.184Z,1.50
2019-05-09T12:34:10.592Z,1.60
2019-05-09T12:36:41.191Z,1.67
2019-05-09T12:39:11.595Z,1.80
2019-05-09T12:41:42.543Z,1.50
2019-05-09T12:44:13.004Z,1.85
2019-05-09T12:46:43.582Z,1.70
2019-05-09T12:49:14.119Z,1.85
2019-05-09T12:51:44.956Z,1.57
2019-05-09T12:54:15.603Z,1.60
2019-05-09T12:56:48.361Z,1.70
2019-05-09T12:59:18.948Z,1.80
2019-05-09T13:01:50.139Z,1.65
2019-05-09T13:04:20.984Z,1.70
2019-05-09T13:06:51.569Z,1.70
2019-05-09T13:09:21.976Z,1.70
2019-05-09T13:11:52.849Z,1.60
2019-05-09T13:14:24.034Z,1.77
2019-05-09T13:17:01.810Z,1.45
2019-05-09T13:19:38.194Z,1.50
2019-05-09T13:22:08.892Z,1.60
2019-05-09T13:24:39.263Z,1.32
2019-05-09T13:27:09.858Z,1.72
2019-05-09T13:29:40.246Z,1.65
2019-05-09T13:32:10.776Z,1.40
2019-05-09T13:34:41.566Z,1.35
2019-05-09T13:37:11.955Z,1.37
2019-05-09T13:39:42.964Z,1.57
2019-05-09T13:42:13.461Z,1.50
2019-05-09T13:44:43.916Z,1.52
2019-05-09T13:47:14.313Z,1.60
2019-05-09T13:49:45.091Z,1.60
2019-05-09T13:52:17.727Z,1.40
2019-05-09T13:54:48.433Z,1.50
2019-05-09T13:57:19.498Z,1.40
2019-05-09T13:59:50.345Z,1.50
2019-05-09T14:02:20.858Z,1.57
2019-05-09T14:04:51.322Z,1.47
2019-05-09T14:07:22.005Z,1.52
2019-05-09T14:09:52.603Z,1.50
2019-05-09T14:12:24.205Z,1.40
2019-05-09T14:14:54.916Z,1.60
2019-05-09T14:17:44.828Z,1.70
2019-05-09T14:19:58.753Z,1.40
2019-05-09T14:22:29.408Z,1.40
2019-05-09T14:24:59.845Z,1.75
2019-05-09T14:27:30.771Z,1.37
2019-05-09T14:30:01.319Z,1.45
2019-05-09T14:32:34.893Z,1.50
2019-05-09T14:35:03.743Z,1.62
2019-05-09T14:37:34.156Z,1.42
2019-05-09T14:40:05.374Z,1.50
2019-05-09T14:42:36.246Z,1.15
2019-05-09T14:45:08.476Z,1.60
2019-05-09T14:47:42.254Z,1.70
2019-05-09T14:50:11.107Z,1.60
2019-05-09T14:52:42.066Z,1.70
2019-05-09T14:55:12.852Z,1.55
2019-05-09T14:57:43.371Z,1.40
2019-05-09T15:00:14.247Z,1.50
2019-05-09T15:02:45.828Z,1.45
2019-05-09T15:05:18.667Z,1.90
2019-05-09T15:07:48.542Z,1.40
2019-05-09T15:10:19.000Z,1.40
2019-05-09T15:12:49.456Z,1.62
2019-05-09T15:15:19.851Z,1.50
2019-05-09T15:17:50.835Z,1.65
2019-05-09T15:20:24.735Z,1.65
2019-05-09T15:22:55.412Z,1.90
2019-05-09T15:25:28.126Z,2.05
2019-05-09T15:27:58.339Z,1.60
2019-05-09T15:30:28.884Z,3.15
2019-05-09T15:32:59.314Z,1.75
2019-05-09T15:35:29.744Z,1.60
2019-05-09T15:38:00.820Z,5.12
2019-05-09T15:40:32.776Z,2.72
2019-05-09T15:43:03.293Z,5.80
2019-05-09T15:45:35.257Z,8.25
2019-05-09T15:48:07.689Z,2.58
2019-05-09T15:50:38.159Z,2.85
2019-05-09T15:53:08.715Z,5.45
2019-05-09T15:55:39.129Z,4.87
2019-05-09T15:58:09.611Z,2.12
2019-05-09T16:00:40.063Z,4.60
2019-05-09T16:03:10.435Z,7.62
2019-05-09T16:05:40.960Z,2.12
2019-05-09T16:08:11.639Z,2.70
2019-05-09T16:10:42.795Z,2.55
2019-05-09T16:13:13.339Z,2.92
2019-05-09T16:15:43.959Z,5.08
2019-05-09T16:18:14.390Z,5.15
2019-05-09T16:20:44.828Z,2.20
2019-05-09T16:23:15.246Z,3.10
2019-05-09T16:25:47.987Z,2.22
2019-05-09T16:28:18.834Z,2.05
2019-05-09T16:30:49.242Z,3.12
2019-05-09T16:33:19.738Z,7.33
2019-05-09T16:35:52.700Z,3.35
2019-05-09T16:38:22.074Z,2.47
2019-05-09T16:40:52.584Z,5.20
2019-05-09T16:43:22.995Z,8.23
2019-05-09T16:45:53.410Z,2.50
2019-05-09T16:48:23.803Z,8.68
2019-05-09T16:51:02.424Z,2.17
2019-05-09T16:53:27.831Z,2.77
2019-05-09T16:55:58.285Z,5.00
2019-05-09T16:58:28.800Z,3.87
2019-05-09T17:00:59.259Z,5.75
2019-05-09T17:03:29.703Z,2.85
2019-05-09T17:06:00.085Z,2.05
2019-05-09T17:08:30.527Z,2.08
2019-05-09T17:11:00.934Z,2.10
2019-05-09T17:13:31.345Z,10.48
2019-05-09T17:16:01.772Z,2.37
2019-05-09T17:18:32.280Z,4.10
2019-05-09T17:21:23.989Z,2.20
2019-05-09T17:23:52.228Z,4.10
2019-05-09T17:26:23.321Z,2.20
2019-05-09T17:28:54.683Z,3.15
2019-05-09T17:31:27.403Z,5.78
2019-05-09T17:33:58.186Z,4.28
2019-05-09T17:36:28.754Z,7.28
2019-05-09T17:38:59.207Z,10.35
2019-05-09T17:41:29.747Z,2.25
2019-05-09T17:44:01.154Z,2.27
2019-05-09T17:46:31.567Z,6.40
2019-05-09T17:49:01.986Z,4.83
2019-05-09T17:51:36.160Z,4.40
2019-05-09T17:54:04.317Z,4.90
2019-05-09T17:56:37.664Z,7.80
2019-05-09T17:59:08.603Z,5.62
2019-05-09T18:01:39.232Z,1.77
2019-05-09T18:04:09.654Z,7.00
2019-05-09T18:06:40.347Z,5.28
2019-05-09T18:09:10.952Z,5.00
2019-05-09T18:11:41.329Z,5.87
2019-05-09T18:14:11.935Z,2.20
2019-05-09T18:16:42.575Z,3.50
2019-05-09T18:19:18.368Z,5.90
2019-05-09T18:21:51.224Z,17.42
2019-05-09T18:24:21.558Z,30.20
2019-05-09T18:26:51.984Z,24.70
2019-05-09T18:29:22.408Z,18.42
2019-05-09T18:31:58.333Z,21.45
2019-05-09T18:34:28.925Z,19.23
2019-05-09T18:36:59.616Z,18.45
2019-05-09T18:39:30.030Z,14.15
2019-05-09T18:42:00.535Z,14.43
2019-05-09T18:44:30.962Z,13.68
2019-05-09T18:47:01.624Z,14.85
2019-05-09T18:49:32.174Z,13.20
2019-05-09T18:52:04.070Z,10.45
2019-05-09T18:54:34.740Z,9.00
2019-05-09T18:57:05.271Z,8.15
2019-05-09T18:59:35.772Z,10.50
2019-05-09T19:02:06.253Z,11.40
2019-05-09T19:04:37.254Z,11.15
2019-05-09T19:07:21.136Z,11.50
2019-05-09T19:09:40.047Z,8.78
2019-05-09T19:12:10.594Z,7.47
2019-05-09T19:14:41.049Z,7.83
2019-05-09T19:17:28.891Z,6.85
2019-05-09T19:20:09.827Z,4.92
2019-05-09T19:22:40.975Z,8.25
2019-05-09T19:25:11.504Z,7.67
2019-05-09T19:27:43.256Z,3.52
2019-05-09T19:30:13.703Z,8.00
2019-05-09T19:32:44.416Z,7.62
2019-05-09T19:35:15.054Z,6.90
2019-05-09T19:37:46.206Z,5.28
2019-05-09T19:40:20.016Z,4.72
2019-05-09T19:42:48.674Z,7.37
2019-05-09T19:45:19.210Z,7.50
2019-05-09T19:47:49.679Z,4.50
2019-05-09T19:50:20.076Z,6.30
2019-05-09T19:52:50.726Z,6.87
2019-05-09T19:55:21.373Z,3.15
2019-05-09T19:57:51.844Z,3.83
2019-05-09T20:00:22.458Z,3.20
2019-05-09T20:02:52.879Z,3.77
2019-05-09T20:05:23.285Z,3.27
2019-05-09T20:07:53.710Z,2.80
2019-05-09T20:10:25.625Z,2.15
2019-05-09T20:13:12.443Z,2.30
2019-05-09T20:15:42.856Z,2.90
2019-05-09T20:18:13.316Z,2.27
2019-05-09T20:20:43.778Z,2.12
2019-05-09T20:23:14.264Z,2.00
2019-05-09T20:25:44.781Z,3.02
2019-05-09T20:28:15.183Z,1.80
2019-05-09T20:30:45.619Z,1.82
2019-05-09T20:33:16.306Z,2.37
2019-05-09T20:35:47.411Z,1.85
2019-05-09T20:38:17.998Z,2.40
2019-05-09T20:40:48.671Z,1.95
2019-05-09T20:43:19.277Z,1.98
2019-05-09T20:45:49.845Z,1.72
2019-05-09T20:48:20.444Z,1.90
2019-05-09T20:50:51.502Z,1.67
2019-05-09T20:53:22.084Z,1.95
2019-05-09T20:55:52.764Z,1.52
2019-05-09T20:58:23.501Z,1.67
2019-05-09T21:00:54.089Z,1.70
2019-05-09T21:03:24.956Z,1.57
2019-05-09T21:05:55.929Z,1.87
2019-05-09T21:08:27.036Z,1.77
2019-05-09T21:10:57.947Z,1.65
2019-05-09T21:13:28.582Z,3.05
2019-05-09T21:15:59.236Z,1.85
2019-05-09T21:18:29.970Z,1.60
2019-05-09T21:21:01.374Z,2.00
2019-05-09T21:23:32.090Z,1.70
2019-05-09T21:26:02.785Z,2.10
2019-05-09T21:28:34.203Z,1.37
2019-05-09T21:31:04.897Z,1.70
2019-05-09T21:33:35.590Z,2.35
2019-05-09T21:36:06.055Z,1.60
2019-05-09T21:38:37.276Z,1.98
2019-05-09T21:41:07.648Z,1.92
2019-05-09T21:43:38.127Z,3.92
2019-05-09T21:46:08.552Z,1.98
2019-05-09T21:48:39.077Z,4.33
2019-05-09T21:51:09.527Z,4.67
2019-05-09T21:53:41.209Z,1.52
2019-05-09T21:56:11.941Z,1.92
2019-05-09T21:58:42.467Z,5.85
2019-05-09T22:01:16.134Z,4.55
2019-05-09T22:03:46.765Z,7.25
2019-05-09T22:06:17.181Z,11.48
2019-05-09T22:08:47.687Z,12.40
2019-05-09T22:11:18.079Z,11.75
2019-05-09T22:13:48.505Z,13.03
2019-05-09T22:16:19.567Z,11.97
2019-05-09T22:18:50.074Z,17.07
2019-05-09T22:21:23.658Z,18.77
2019-05-09T22:23:56.820Z,15.08
2019-05-09T22:26:26.244Z,16.55
2019-05-09T22:28:56.687Z,16.40
2019-05-09T22:31:27.171Z,13.48
2019-05-09T22:33:57.615Z,15.13
2019-05-09T22:36:29.387Z,13.95
2019-05-09T22:38:59.921Z,12.40
2019-05-09T22:41:30.482Z,11.63
2019-05-09T22:44:00.890Z,11.88
2019-05-09T22:46:31.452Z,8.70
2019-05-09T22:49:01.912Z,9.98
2019-05-09T22:51:32.675Z,8.38
2019-05-09T22:54:12.300Z,9.50
2019-05-09T22:56:35.477Z,7.30
2019-05-09T22:59:06.006Z,6.87
2019-05-09T23:01:36.611Z,7.03
2019-05-09T23:04:06.987Z,7.03
2019-05-09T23:06:37.449Z,4.72
2019-05-09T23:09:08.909Z,4.00
2019-05-09T23:11:39.304Z,5.70
2019-05-09T23:14:10.025Z,5.15
2019-05-09T23:16:41.655Z,3.72
2019-05-09T23:19:12.082Z,4.80
2019-05-09T23:21:42.604Z,2.95
2019-05-09T23:24:28.212Z,4.33
2019-05-09T23:26:49.562Z,3.85
2019-05-09T23:29:20.183Z,3.50
2019-05-09T23:31:55.045Z,3.17
2019-05-09T23:34:25.552Z,3.83
2019-05-09T23:36:55.985Z,3.35
2019-05-09T23:39:28.231Z,3.05
2019-05-09T23:41:58.658Z,2.67
2019-05-09T23:44:29.664Z,2.47
2019-05-09T23:47:02.867Z,2.70
2019-05-09T23:49:33.445Z,2.75
2019-05-09T23:52:04.158Z,2.45
2019-05-09T23:54:52.515Z,2.98
2019-05-09T23:57:40.403Z,2.50
